Time;durP1;ratioP1;P1;durP2;ratioP2;P2;SDS_P1;SDS_P2;PMS_P1;PMS_P2;Temp;Humidity;BMP_temperature;BMP_pressure;BME280_temperature;BME280_humidity;BME280_pressure;Samples;Min_cycle;Max_cycle;Signal;HPM_P1;HPM_P2
2022/10/19 00:01:23;;;;;;;13.25;5.97;;;;;;;8.79;100.00;99677.38;4156441;28;20056;-74
2022/10/19 00:03:23;;;;;;;41.47;8.18;;;;;;;8.75;100.00;99676.41;4158147;28;20045;-73
2022/10/19 00:05:23;;;;;;;15.80;6.95;;;;;;;8.76;100.00;99680.00;4159197;28;20441;-73
2022/10/19 00:07:23;;;;;;;23.05;6.78;;;;;;;8.69;100.00;99684.13;4156411;28;20068;-73
2022/10/19 00:09:24;;;;;;;16.60;6.85;;;;;;;8.69;100.00;99683.31;4158400;28;20081;-74
2022/10/19 00:11:25;;;;;;;8.70;5.90;;;;;;;8.65;100.00;99682.34;4159040;28;20072;-74
2022/10/19 00:13:25;;;;;;;11.65;5.90;;;;;;;8.62;100.00;99675.56;4156050;28;20428;-73
2022/10/19 00:15:25;;;;;;;10.40;5.80;;;;;;;8.60;100.00;99674.25;4157204;28;20441;-74
2022/10/19 00:17:26;;;;;;;13.00;6.40;;;;;;;8.57;100.00;99672.19;4159846;28;20099;-74
2022/10/19 00:19:27;;;;;;;8.90;5.82;;;;;;;8.56;100.00;99676.09;4156769;28;20463;-74
2022/10/19 00:21:27;;;;;;;18.80;6.00;;;;;;;8.48;100.00;99676.97;4155581;28;20049;-73
2022/10/19 00:23:28;;;;;;;7.75;5.00;;;;;;;8.41;100.00;99675.53;4157091;28;20095;-74
2022/10/19 00:25:28;;;;;;;17.88;5.68;;;;;;;8.37;100.00;99682.88;4163197;28;20521;-73
2022/10/19 00:27:28;;;;;;;7.22;5.43;;;;;;;8.32;100.00;99674.75;4156198;28;20104;-74
2022/10/19 00:29:29;;;;;;;9.65;5.55;;;;;;;8.27;100.00;99672.16;4156076;28;20045;-73
2022/10/19 00:31:29;;;;;;;8.48;5.70;;;;;;;8.25;100.00;99666.19;4161409;28;20124;-74
2022/10/19 00:33:29;;;;;;;7.70;5.32;;;;;;;8.29;100.00;99680.13;4156887;28;20042;-74
2022/10/19 00:35:29;;;;;;;7.72;5.60;;;;;;;8.27;100.00;99674.94;4155169;28;20521;-73
2022/10/19 00:37:30;;;;;;;12.60;6.15;;;;;;;8.25;100.00;99676.41;4156025;28;20175;-73
2022/10/19 00:39:30;;;;;;;8.00;5.45;;;;;;;8.20;100.00;99671.13;4156554;28;20316;-73
2022/10/19 00:41:32;;;;;;;9.85;5.70;;;;;;;8.15;100.00;99667.38;4156095;28;20124;-73
2022/10/19 00:43:50;;;;;;;7.75;5.00;;;;;;;8.08;100.00;99674.56;4157738;28;20477;-73
2022/10/19 00:45:51;;;;;;;7.20;4.35;;;;;;;8.08;100.00;99678.13;4158772;28;20525;-74
2022/10/19 00:47:51;;;;;;;7.50;4.60;;;;;;;8.12;100.00;99676.34;4156701;28;20049;-73
2022/10/19 00:49:53;;;;;;;12.38;4.43;;;;;;;8.14;100.00;99676.00;4155526;28;20643;-73
2022/10/19 00:51:57;;;;;;;9.15;3.85;;;;;;;8.08;100.00;99688.34;4160788;28;20385;-73
2022/10/19 00:53:59;;;;;;;6.65;4.45;;;;;;;8.02;100.00;99676.69;4157308;28;20053;-73
2022/10/19 00:56:04;;;;;;;4.90;3.72;;;;;;;7.99;100.00;99677.38;4157521;28;20128;-73
2022/10/19 00:58:05;;;;;;;6.25;3.50;;;;;;;7.92;100.00;99666.03;4154826;28;20064;-73
2022/10/19 01:00:07;;;;;;;8.63;4.03;;;;;;;7.84;100.00;99678.72;4156026;28;20033;-73
2022/10/19 01:02:07;;;;;;;30.10;4.72;;;;;;;7.77;100.00;99681.19;4155051;28;20033;-74
2022/10/19 01:04:09;;;;;;;6.63;3.33;;;;;;;7.72;100.00;99678.63;4156173;28;20386;-74
2022/10/19 01:06:12;;;;;;;14.48;3.90;;;;;;;7.69;100.00;99671.00;4156307;28;20314;-73
2022/10/19 01:08:12;;;;;;;6.25;3.85;;;;;;;7.65;100.00;99666.50;4156814;28;20535;-73
2022/10/19 01:10:13;;;;;;;5.10;3.58;;;;;;;7.62;100.00;99672.66;4154693;28;20060;-74
2022/10/19 01:12:45;;;;;;;6.95;3.90;;;;;;;7.62;100.00;99670.72;4156186;28;20109;-74
2022/10/19 01:14:57;;;;;;;7.80;5.18;;;;;;;7.64;100.00;99682.22;4131552;28;20305;-74
2022/10/19 01:17:35;;;;;;;10.88;6.55;;;;;;;7.74;100.00;99683.78;4163965;28;20091;-73
2022/10/19 01:19:57;;;;;;;14.40;6.70;;;;;;;7.84;100.00;99678.72;4155323;28;20041;-74
2022/10/19 01:22:25;;;;;;;12.27;6.90;;;;;;;7.87;100.00;99671.75;4161398;28;20064;-73
2022/10/19 01:24:36;;;;;;;12.90;6.30;;;;;;;7.88;100.00;99674.19;4160820;28;20045;-73
2022/10/19 01:27:09;;;;;;;10.88;6.38;;;;;;;7.85;100.00;99672.06;4156161;28;20041;-74
2022/10/19 01:29:52;;;;;;;9.48;6.38;;;;;;;7.86;100.00;99661.84;4155387;28;20052;-74
2022/10/19 01:32:10;;;;;;;9.43;6.13;;;;;;;7.86;100.00;99673.72;4161550;28;20537;-73
2022/10/19 01:34:46;;;;;;;9.40;5.95;;;;;;;7.84;100.00;99669.66;4156365;28;20050;-73
2022/10/19 01:37:01;;;;;;;11.02;6.40;;;;;;;7.80;100.00;99661.25;4155880;28;20052;-73
2022/10/19 01:39:22;;;;;;;8.55;5.55;;;;;;;7.83;100.00;99657.00;4159435;28;20054;-73
2022/10/19 01:41:33;;;;;;;10.55;5.82;;;;;;;7.81;100.00;99660.09;4155100;28;20748;-73
2022/10/19 01:43:55;;;;;;;9.18;5.20;;;;;;;7.79;100.00;99669.84;4154247;28;20058;-73
2022/10/19 01:46:12;;;;;;;9.00;5.50;;;;;;;7.72;100.00;99670.34;4156132;28;20449;-73
2022/10/19 01:48:31;;;;;;;9.25;5.80;;;;;;;7.72;100.00;99673.13;4155868;28;20049;-73
2022/10/19 01:50:37;;;;;;;8.13;5.15;;;;;;;7.68;100.00;99676.84;4157626;28;20178;-73
2022/10/19 01:52:39;;;;;;;9.88;5.93;;;;;;;7.64;100.00;99670.38;4160600;28;20080;-73
2022/10/19 01:54:44;;;;;;;10.00;6.03;;;;;;;7.60;100.00;99665.53;4156401;28;20038;-73
2022/10/19 01:56:47;;;;;;;10.93;6.07;;;;;;;7.58;100.00;99669.75;4160996;28;20124;-73
2022/10/19 01:58:50;;;;;;;10.43;5.60;;;;;;;7.54;100.00;99671.56;4154037;28;20083;-73
2022/10/19 02:00:52;;;;;;;11.38;6.05;;;;;;;7.52;100.00;99665.56;4155550;28;20099;-73
2022/10/19 02:02:54;;;;;;;9.57;5.60;;;;;;;7.49;100.00;99652.44;4154568;28;20049;-73
2022/10/19 02:04:56;;;;;;;8.82;4.80;;;;;;;7.55;100.00;99646.44;4156438;28;20049;-73
2022/10/19 02:06:57;;;;;;;11.43;5.70;;;;;;;7.52;100.00;99646.28;4156882;28;20037;-73
2022/10/19 02:08:57;;;;;;;9.52;5.30;;;;;;;7.53;100.00;99643.22;4154939;28;20057;-73
2022/10/19 02:10:59;;;;;;;7.93;5.43;;;;;;;7.47;100.00;99651.97;4154821;28;20091;-73
2022/10/19 02:13:02;;;;;;;10.07;5.55;;;;;;;7.38;100.00;99648.44;4155817;28;20085;-73
2022/10/19 02:15:09;;;;;;;8.27;5.20;;;;;;;7.32;100.00;99653.31;4154061;28;20083;-73
2022/10/19 02:17:13;;;;;;;9.50;5.72;;;;;;;7.33;100.00;99661.22;4155014;28;20083;-73
2022/10/19 02:19:15;;;;;;;10.50;6.00;;;;;;;7.31;100.00;99648.94;4154839;28;20696;-73
2022/10/19 02:21:16;;;;;;;11.75;6.40;;;;;;;7.38;100.00;99652.00;4155574;28;20041;-73
2022/10/19 02:23:21;;;;;;;10.07;5.80;;;;;;;7.39;100.00;99645.34;4154728;28;20046;-73
2022/10/19 02:25:22;;;;;;;10.10;5.78;;;;;;;7.36;100.00;99642.44;4157731;28;20123;-73
2022/10/19 02:27:23;;;;;;;11.98;6.53;;;;;;;7.38;100.00;99635.47;4154709;28;20048;-73
2022/10/19 02:29:23;;;;;;;8.98;5.68;;;;;;;7.36;100.00;99626.72;4153781;28;20041;-73
2022/10/19 02:31:25;;;;;;;10.00;5.60;;;;;;;7.33;100.00;99628.19;4155176;28;20046;-73
2022/10/19 02:33:26;;;;;;;9.43;5.00;;;;;;;7.28;100.00;99628.41;4159030;28;20773;-74
2022/10/19 02:35:27;;;;;;;9.50;5.97;;;;;;;7.24;100.00;99623.84;4155390;28;20393;-73
2022/10/19 02:37:27;;;;;;;8.65;5.18;;;;;;;7.19;100.00;99626.78;4153803;28;20278;-73
2022/10/19 02:39:28;;;;;;;9.73;5.13;;;;;;;7.21;100.00;99627.28;4158126;28;20141;-73
2022/10/19 02:41:43;;;;;;;8.70;5.25;;;;;;;7.18;100.00;99628.72;4156215;28;20048;-73
2022/10/19 02:43:48;;;;;;;9.10;5.30;;;;;;;7.18;100.00;99630.66;4156447;28;20045;-73
2022/10/19 02:45:58;;;;;;;12.90;5.65;;;;;;;7.22;100.00;99631.66;4158417;28;20425;-73
2022/10/19 02:48:03;;;;;;;10.10;5.25;;;;;;;7.22;100.00;99618.69;4155891;28;20137;-73
2022/10/19 02:50:07;;;;;;;11.60;5.53;;;;;;;7.28;100.00;99630.31;4154184;28;20068;-73
2022/10/19 02:52:09;;;;;;;9.45;4.90;;;;;;;7.29;100.00;99616.25;4154554;28;20033;-73
2022/10/19 02:54:10;;;;;;;8.00;5.45;;;;;;;7.28;100.00;99613.78;4153760;28;20115;-73
2022/10/19 02:56:10;;;;;;;9.98;5.50;;;;;;;7.28;100.00;99622.06;4154331;28;20026;-73
2022/10/19 02:58:10;;;;;;;7.60;5.03;;;;;;;7.23;100.00;99614.78;4155485;28;20022;-73
2022/10/19 03:00:11;;;;;;;8.90;4.82;;;;;;;7.17;100.00;99610.59;4154378;28;20454;-73
2022/10/19 03:02:12;;;;;;;9.73;5.10;;;;;;;7.16;100.00;99620.00;4154929;28;20028;-73
2022/10/19 03:04:13;;;;;;;9.68;5.50;;;;;;;7.04;100.00;99625.38;4155107;28;20068;-73
2022/10/19 03:06:13;;;;;;;7.85;4.97;;;;;;;7.01;100.00;99621.31;4154485;28;20029;-73
2022/10/19 03:08:13;;;;;;;9.32;4.60;;;;;;;7.01;100.00;99628.75;4154172;28;20037;-73
2022/10/19 03:10:13;;;;;;;8.32;4.75;;;;;;;6.93;100.00;99632.31;4154657;28;20037;-73
2022/10/19 03:12:14;;;;;;;7.22;4.25;;;;;;;6.89;100.00;99631.38;4153975;28;20285;-73
2022/10/19 03:14:14;;;;;;;10.15;5.30;;;;;;;6.85;100.00;99627.66;4154107;28;20033;-73
2022/10/19 03:16:15;;;;;;;11.77;5.25;;;;;;;6.80;100.00;99619.56;4154653;28;20029;-73
2022/10/19 03:18:15;;;;;;;10.20;5.53;;;;;;;6.82;100.00;99625.56;4154405;28;20041;-73
2022/10/19 03:20:15;;;;;;;8.30;5.32;;;;;;;6.82;100.00;99620.84;4156057;28;20057;-73
2022/10/19 03:22:15;;;;;;;10.48;5.03;;;;;;;6.79;100.00;99628.97;4154089;28;20029;-73
2022/10/19 03:24:16;;;;;;;8.23;5.03;;;;;;;6.73;100.00;99614.56;4154944;28;20034;-73
2022/10/19 03:26:17;;;;;;;10.60;5.43;;;;;;;6.67;100.00;99611.16;4154037;28;20489;-73
2022/10/19 03:28:17;;;;;;;7.50;4.70;;;;;;;6.64;100.00;99613.75;4153983;28;20779;-73
2022/10/19 03:30:18;;;;;;;6.90;4.55;;;;;;;6.63;100.00;99620.41;4154828;28;20362;-73
2022/10/19 03:32:18;;;;;;;6.18;3.90;;;;;;;6.59;100.00;99628.47;4154468;28;20053;-73
2022/10/19 03:34:18;;;;;;;6.95;4.38;;;;;;;6.45;100.00;99634.16;4157705;28;20484;-73
2022/10/19 03:36:22;;;;;;;8.63;3.63;;;;;;;6.43;100.00;99630.06;4157173;28;20026;-73
2022/10/19 03:38:23;;;;;;;7.82;3.92;;;;;;;6.33;100.00;99625.72;4158570;28;20091;-73
2022/10/19 03:40:23;;;;;;;7.07;3.42;;;;;;;6.15;100.00;99646.06;4159248;28;20384;-73
2022/10/19 03:42:23;;;;;;;6.63;3.53;;;;;;;6.00;100.00;99647.31;4157093;28;20041;-73
2022/10/19 03:44:24;;;;;;;5.25;3.92;;;;;;;5.87;100.00;99649.00;4157533;28;20041;-73
2022/10/19 03:46:25;;;;;;;8.40;4.63;;;;;;;5.83;100.00;99655.47;4157458;28;20132;-73
2022/10/19 03:48:25;;;;;;;8.70;4.65;;;;;;;5.82;100.00;99657.41;4157113;28;20129;-73
2022/10/19 03:50:25;;;;;;;8.18;4.45;;;;;;;5.77;100.00;99660.28;4155635;28;20041;-73
2022/10/19 03:52:25;;;;;;;7.28;4.60;;;;;;;5.66;100.00;99669.13;4159840;28;20080;-73
2022/10/19 03:54:26;;;;;;;7.32;3.53;;;;;;;5.62;100.00;99672.50;4157669;28;20037;-73
2022/10/19 03:56:28;;;;;;;8.07;4.00;;;;;;;5.55;100.00;99666.69;4156873;28;20420;-73
2022/10/19 03:58:29;;;;;;;5.15;4.00;;;;;;;5.53;100.00;99687.31;4156509;28;20045;-73
2022/10/19 04:00:30;;;;;;;5.88;3.85;;;;;;;5.50;100.00;99685.22;4159252;28;20033;-73
2022/10/19 04:02:30;;;;;;;6.45;3.53;;;;;;;5.46;100.00;99689.69;4160994;28;20047;-73
2022/10/19 04:04:30;;;;;;;9.00;4.07;;;;;;;5.40;100.00;99690.97;4156563;28;20029;-73
2022/10/19 04:06:34;;;;;;;42.08;5.35;;;;;;;5.33;100.00;99694.97;4157285;28;20518;-73
2022/10/19 04:08:35;;;;;;;39.08;5.30;;;;;;;5.16;100.00;99691.31;4156022;28;20044;-73
2022/10/19 04:10:35;;;;;;;5.82;3.30;;;;;;;5.14;100.00;99691.63;4156794;28;20049;-73
2022/10/19 04:12:35;;;;;;;10.02;4.03;;;;;;;5.13;100.00;99694.66;4156906;28;20347;-73
2022/10/19 04:14:37;;;;;;;5.30;3.45;;;;;;;5.15;100.00;99692.44;4165524;28;20418;-73
2022/10/19 04:16:37;;;;;;;11.73;4.10;;;;;;;5.12;100.00;99698.53;4158715;28;20064;-73
2022/10/19 04:18:37;;;;;;;5.35;3.55;;;;;;;5.12;100.00;99693.03;4155764;28;20041;-73
2022/10/19 04:20:41;;;;;;;6.57;4.35;;;;;;;5.17;100.00;99690.97;4156587;28;20060;-73
2022/10/19 04:22:41;;;;;;;7.88;5.05;;;;;;;5.27;100.00;99698.13;4157173;28;20501;-73
2022/10/19 04:24:42;;;;;;;6.25;4.45;;;;;;;5.39;100.00;99701.13;4156112;28;20423;-73
2022/10/19 04:26:47;;;;;;;6.95;4.05;;;;;;;5.56;100.00;99697.69;4157943;28;20687;-72
2022/10/19 04:28:48;;;;;;;6.55;4.63;;;;;;;5.57;100.00;99697.34;4160400;28;20041;-72
2022/10/19 04:30:48;;;;;;;6.57;4.13;;;;;;;5.60;100.00;99693.97;4157244;28;20061;-73
2022/10/19 04:32:49;;;;;;;5.80;4.38;;;;;;;5.63;100.00;99689.81;4160941;28;20111;-73
2022/10/19 04:34:49;;;;;;;5.93;4.15;;;;;;;5.69;100.00;99696.75;4159004;28;20453;-73
2022/10/19 04:36:49;;;;;;;6.82;4.32;;;;;;;5.76;100.00;99707.28;4156406;28;20196;-73
2022/10/19 04:38:50;;;;;;;7.50;5.25;;;;;;;5.81;100.00;99696.19;4155014;28;20037;-73
2022/10/19 04:40:51;;;;;;;6.55;4.35;;;;;;;5.81;100.00;99702.47;4157449;28;20081;-73
2022/10/19 04:42:51;;;;;;;8.48;4.65;;;;;;;5.89;100.00;99692.66;4101858;28;20556;-73
2022/10/19 04:44:51;;;;;;;9.90;5.25;;;;;;;6.00;100.00;99698.69;4155972;28;20073;-73
2022/10/19 04:46:52;;;;;;;7.05;4.32;;;;;;;6.11;100.00;99703.56;4156950;28;20108;-73
2022/10/19 04:48:53;;;;;;;8.68;5.18;;;;;;;6.24;100.00;99698.28;4154447;28;20474;-73
2022/10/19 04:50:54;;;;;;;6.68;4.40;;;;;;;6.32;100.00;99705.75;4156389;28;20057;-73
2022/10/19 04:52:54;;;;;;;8.35;4.13;;;;;;;6.31;100.00;99704.94;4159047;28;20048;-73
2022/10/19 04:54:55;;;;;;;5.30;3.53;;;;;;;6.33;100.00;99702.69;4160145;28;20385;-73
2022/10/19 04:56:55;;;;;;;5.38;3.70;;;;;;;6.33;100.00;99707.38;4155728;28;20057;-73
2022/10/19 04:58:56;;;;;;;7.55;4.32;;;;;;;6.31;100.00;99702.19;4156192;28;20045;-73
2022/10/19 05:00:57;;;;;;;7.65;4.38;;;;;;;6.34;100.00;99703.47;4156786;28;20323;-73
2022/10/19 05:02:57;;;;;;;8.68;3.70;;;;;;;6.34;100.00;99700.72;4156147;28;20499;-73
2022/10/19 05:04:57;;;;;;;6.10;4.03;;;;;;;6.34;100.00;99698.78;4155523;28;20231;-73
2022/10/19 05:06:57;;;;;;;9.90;3.58;;;;;;;6.33;100.00;99697.19;4155044;28;20038;-73
2022/10/19 05:08:58;;;;;;;6.22;3.65;;;;;;;6.39;100.00;99700.59;4156015;28;20073;-73
2022/10/19 05:11:04;;;;;;;7.43;4.40;;;;;;;6.36;100.00;99695.72;4155733;28;20049;-73
2022/10/19 05:13:04;;;;;;;8.23;4.43;;;;;;;6.38;100.00;99715.47;4159432;28;20053;-73
2022/10/19 05:15:05;;;;;;;8.70;4.00;;;;;;;6.34;100.00;99703.47;4156457;28;20541;-73
2022/10/19 05:17:05;;;;;;;6.03;3.80;;;;;;;6.29;100.00;99703.63;4156090;28;20044;-73
2022/10/19 05:19:06;;;;;;;5.93;3.70;;;;;;;6.29;100.00;99698.13;4155603;28;20330;-73
2022/10/19 05:21:12;;;;;;;6.78;4.07;;;;;;;6.25;100.00;99697.97;4158207;28;20042;-73
2022/10/19 05:23:12;;;;;;;12.27;3.75;;;;;;;6.25;100.00;99688.91;4162919;28;20052;-73
2022/10/19 05:25:12;;;;;;;6.55;3.83;;;;;;;6.18;100.00;99681.13;4155746;28;20461;-73
2022/10/19 05:27:13;;;;;;;6.55;3.42;;;;;;;6.11;100.00;99689.84;4155794;28;20393;-73
2022/10/19 05:29:13;;;;;;;6.80;3.63;;;;;;;6.11;100.00;99691.78;4160233;28;20083;-73
2022/10/19 05:31:19;;;;;;;7.85;4.20;;;;;;;6.13;100.00;99693.09;4156471;28;20050;-73
2022/10/19 05:33:19;;;;;;;5.55;3.67;;;;;;;6.16;100.00;99697.94;4153925;28;20115;-73
2022/10/19 05:35:20;;;;;;;10.07;4.00;;;;;;;6.21;100.00;99699.75;4155007;28;20050;-73
2022/10/19 05:37:21;;;;;;;6.38;3.80;;;;;;;6.23;100.00;99697.47;4156739;28;20807;-73
2022/10/19 05:39:22;;;;;;;7.80;4.60;;;;;;;6.27;100.00;99706.69;4154230;28;20033;-73
2022/10/19 05:41:23;;;;;;;7.22;4.15;;;;;;;6.28;100.00;99702.81;4155521;28;20297;-73
2022/10/19 05:43:24;;;;;;;5.80;3.73;;;;;;;6.31;100.00;99695.88;4156491;28;20045;-73
2022/10/19 05:45:24;;;;;;;8.43;4.10;;;;;;;6.35;100.00;99705.09;4155678;28;20684;-73
2022/10/19 05:47:24;;;;;;;9.18;4.60;;;;;;;6.34;100.00;99706.22;4154492;28;20045;-73
2022/10/19 05:49:24;;;;;;;11.10;5.55;;;;;;;6.37;100.00;99702.84;4159725;28;20041;-73
2022/10/19 05:51:26;;;;;;;10.50;5.15;;;;;;;6.40;100.00;99702.22;4160031;28;20049;-73
2022/10/19 05:53:28;;;;;;;9.43;5.15;;;;;;;6.43;100.00;99698.81;4159629;28;20037;-73
2022/10/19 05:55:28;;;;;;;9.52;5.38;;;;;;;6.47;100.00;99705.31;4155150;28;20039;-73
2022/10/19 05:57:30;;;;;;;12.18;6.68;;;;;;;6.48;100.00;99698.66;4155766;28;20099;-73
2022/10/19 05:59:31;;;;;;;11.85;7.22;;;;;;;6.47;100.00;99703.34;4156137;28;20045;-73
2022/10/19 06:01:32;;;;;;;10.43;6.53;;;;;;;6.49;100.00;99705.78;4154307;28;20429;-73
2022/10/19 06:03:32;;;;;;;12.60;7.30;;;;;;;6.49;100.00;99703.03;4159789;28;20073;-73
2022/10/19 06:05:35;;;;;;;11.82;6.05;;;;;;;6.50;100.00;99701.91;4157987;28;20414;-73
2022/10/19 06:07:36;;;;;;;10.07;5.97;;;;;;;6.54;100.00;99699.31;4154119;28;20115;-73
2022/10/19 06:09:36;;;;;;;11.52;6.22;;;;;;;6.57;100.00;99707.72;4154297;28;20049;-73
2022/10/19 06:11:39;;;;;;;13.13;8.52;;;;;;;6.59;100.00;99702.72;4155765;28;20033;-73
2022/10/19 06:13:41;;;;;;;12.05;7.03;;;;;;;6.55;100.00;99700.94;4155137;28;20045;-73
2022/10/19 06:15:41;;;;;;;14.75;7.70;;;;;;;6.43;100.00;99696.88;4158385;28;20053;-73
2022/10/19 06:17:42;;;;;;;8.93;6.35;;;;;;;6.49;100.00;99705.78;4155422;28;20173;-73
2022/10/19 06:19:42;;;;;;;7.10;4.88;;;;;;;6.48;100.00;99710.47;4158119;28;20308;-73
2022/10/19 06:21:43;;;;;;;5.95;4.28;;;;;;;6.44;100.00;99711.41;4154193;28;20099;-73
2022/10/19 06:23:48;;;;;;;9.73;5.30;;;;;;;6.38;100.00;99708.03;4155856;28;20051;-73
2022/10/19 06:25:48;;;;;;;6.68;5.22;;;;;;;6.35;100.00;99716.91;4157153;28;20490;-73
2022/10/19 06:27:49;;;;;;;6.88;4.78;;;;;;;6.25;100.00;99708.16;4155628;28;20063;-73
2022/10/19 06:29:49;;;;;;;9.55;5.32;;;;;;;6.19;100.00;99707.47;4153328;28;20527;-73
2022/10/19 06:31:50;;;;;;;13.90;7.53;;;;;;;6.15;100.00;99707.31;4155394;28;20057;-73
2022/10/19 06:33:51;;;;;;;10.65;4.93;;;;;;;6.12;100.00;99712.63;4159676;28;20046;-73
2022/10/19 06:35:51;;;;;;;10.80;4.97;;;;;;;6.08;100.00;99719.91;4154652;28;20042;-73
2022/10/19 06:37:51;;;;;;;7.22;4.80;;;;;;;6.08;100.00;99722.66;4154907;28;20065;-73
2022/10/19 06:39:52;;;;;;;7.47;4.40;;;;;;;6.05;100.00;99737.03;4154202;28;20076;-73
2022/10/19 06:41:52;;;;;;;10.82;4.63;;;;;;;6.04;100.00;99738.97;4155266;28;20052;-73
2022/10/19 06:43:54;;;;;;;10.18;5.30;;;;;;;6.03;100.00;99731.84;4158865;28;20053;-73
2022/10/19 06:45:54;;;;;;;11.88;7.20;;;;;;;5.99;100.00;99725.38;4155233;28;20042;-73
2022/10/19 06:47:55;;;;;;;11.10;6.55;;;;;;;6.02;100.00;99737.66;4154715;28;20056;-73
2022/10/19 06:49:56;;;;;;;8.98;5.90;;;;;;;6.03;100.00;99736.50;4153218;28;20422;-73
2022/10/19 06:51:56;;;;;;;9.25;5.57;;;;;;;6.02;100.00;99741.22;4154668;28;20044;-73
2022/10/19 06:53:56;;;;;;;18.27;7.55;;;;;;;6.03;100.00;99742.81;4154540;28;20045;-73
2022/10/19 06:55:58;;;;;;;18.83;10.02;;;;;;;6.05;100.00;99740.59;4154773;28;20277;-73
2022/10/19 06:58:00;;;;;;;19.13;10.20;;;;;;;6.08;100.00;99736.38;4159090;28;20371;-73
2022/10/19 07:00:01;;;;;;;14.60;8.18;;;;;;;6.13;100.00;99744.50;4154286;28;20052;-73
2022/10/19 07:02:01;;;;;;;15.75;8.23;;;;;;;6.16;100.00;99738.34;4153803;28;20124;-73
2022/10/19 07:04:01;;;;;;;11.85;7.28;;;;;;;6.22;100.00;99744.53;4153781;28;20056;-73
2022/10/19 07:06:05;;;;;;;11.77;6.13;;;;;;;6.24;100.00;99745.00;4157847;28;20163;-73
2022/10/19 07:08:05;;;;;;;11.27;6.60;;;;;;;6.27;100.00;99739.69;4157790;28;20029;-73
2022/10/19 07:10:06;;;;;;;10.80;7.25;;;;;;;6.33;100.00;99743.91;4156514;28;20322;-73
2022/10/19 07:12:07;;;;;;;15.15;8.07;;;;;;;6.38;100.00;99743.78;4158035;28;20481;-73
2022/10/19 07:14:07;;;;;;;11.05;6.32;;;;;;;6.41;100.00;99745.06;4157853;28;20037;-73
2022/10/19 07:16:13;;;;;;;10.85;6.38;;;;;;;6.48;100.00;99754.47;4161199;28;20051;-73
2022/10/19 07:18:14;;;;;;;9.88;6.63;;;;;;;6.50;100.00;99756.06;4158129;28;20076;-73
2022/10/19 07:20:15;;;;;;;11.35;7.38;;;;;;;6.51;100.00;99758.50;4156956;28;20033;-73
2022/10/19 07:22:15;;;;;;;18.48;9.93;;;;;;;6.50;100.00;99759.63;4157373;28;20452;-73
2022/10/19 07:24:15;;;;;;;19.65;8.15;;;;;;;6.51;100.00;99757.69;4158144;28;20031;-73
2022/10/19 07:26:22;;;;;;;13.70;7.63;;;;;;;6.56;100.00;99754.81;4157485;28;20033;-73
2022/10/19 07:28:22;;;;;;;20.88;9.80;;;;;;;6.56;100.00;99755.63;4157261;28;20342;-73
2022/10/19 07:30:23;;;;;;;20.50;12.25;;;;;;;6.53;100.00;99748.00;4157060;28;20038;-73
2022/10/19 07:32:23;;;;;;;19.13;12.87;;;;;;;6.58;100.00;99747.03;4157513;28;20038;-73
2022/10/19 07:34:24;;;;;;;26.30;12.88;;;;;;;6.58;100.00;99745.09;4157537;28;20069;-73
2022/10/19 07:36:25;;;;;;;28.55;13.65;;;;;;;6.63;100.00;99755.97;4157955;28;20112;-73
2022/10/19 07:38:26;;;;;;;22.15;14.43;;;;;;;6.68;100.00;99760.47;4156830;28;20049;-73
2022/10/19 07:40:27;;;;;;;22.17;12.00;;;;;;;6.66;100.00;99752.56;4157126;28;20095;-73
2022/10/19 07:42:29;;;;;;;26.85;14.73;;;;;;;6.70;100.00;99750.78;4157724;28;20049;-73
2022/10/19 07:44:29;;;;;;;20.77;12.45;;;;;;;6.75;100.00;99750.63;4160636;28;20393;-73
2022/10/19 07:46:32;;;;;;;18.83;11.13;;;;;;;6.81;100.00;99748.53;4157447;28;20900;-73
2022/10/19 07:48:34;;;;;;;21.77;12.40;;;;;;;6.86;100.00;99751.09;4160784;28;20124;-73
2022/10/19 07:50:34;;;;;;;21.42;11.57;;;;;;;6.89;100.00;99755.19;4158453;28;20049;-73
2022/10/19 07:52:34;;;;;;;17.98;11.52;;;;;;;6.89;100.00;99756.00;4156546;28;20056;-73
2022/10/19 07:54:34;;;;;;;16.77;9.85;;;;;;;6.96;100.00;99755.50;4157297;28;20103;-73
2022/10/19 07:56:35;;;;;;;17.75;9.98;;;;;;;7.00;100.00;99749.03;4158602;28;20279;-73
2022/10/19 07:58:36;;;;;;;18.67;11.50;;;;;;;7.05;100.00;99753.56;4156071;28;20037;-73
2022/10/19 08:00:36;;;;;;;15.60;11.88;;;;;;;7.12;100.00;99747.59;4157068;28;20048;-73
2022/10/19 08:02:36;;;;;;;16.92;10.70;;;;;;;7.17;100.00;99756.47;4157790;28;20132;-73
2022/10/19 08:04:38;;;;;;;23.85;10.45;;;;;;;7.22;100.00;99748.06;4157918;28;20029;-73
2022/10/19 08:06:38;;;;;;;14.32;8.93;;;;;;;7.27;100.00;99758.09;4156426;28;20652;-73
2022/10/19 08:08:39;;;;;;;12.77;8.50;;;;;;;7.31;100.00;99759.88;4156822;28;20113;-73
2022/10/19 08:10:39;;;;;;;17.00;9.07;;;;;;;7.41;100.00;99760.66;4157980;28;20438;-73
2022/10/19 08:12:40;;;;;;;11.18;7.32;;;;;;;7.45;100.00;99761.66;4156086;28;20109;-73
2022/10/19 08:14:40;;;;;;;12.88;8.88;;;;;;;7.49;100.00;99762.59;4157173;28;20038;-73
2022/10/19 08:16:43;;;;;;;11.02;8.18;;;;;;;7.51;100.00;99761.13;4158853;28;20124;-73
2022/10/19 08:18:43;;;;;;;;;;;;;;;7.59;100.00;99767.75;4158945;28;20049;-73
2022/10/19 08:20:43;;;;;;;25.00;18.13;;;;;;;7.63;100.00;99766.00;4156060;28;19928;-73
2022/10/19 08:22:44;;;;;;;27.10;18.80;;;;;;;7.68;100.00;99773.25;4156325;28;20623;-73
2022/10/19 08:24:44;;;;;;;23.00;15.32;;;;;;;7.71;100.00;99775.38;4157927;28;20096;-73
2022/10/19 08:26:45;;;;;;;17.75;12.27;;;;;;;7.77;100.00;99766.59;4160188;28;20396;-73
2022/10/19 08:28:45;;;;;;;16.77;10.77;;;;;;;7.85;100.00;99765.75;4155762;28;20034;-73
2022/10/19 08:30:46;;;;;;;18.52;8.95;;;;;;;7.94;100.00;99764.91;4157054;28;20037;-73
2022/10/19 08:32:46;;;;;;;15.30;9.57;;;;;;;8.00;100.00;99763.59;4156535;28;20049;-73
2022/10/19 08:34:46;;;;;;;27.25;17.63;;;;;;;8.07;100.00;99761.16;4156259;28;20041;-73
2022/10/19 08:36:47;;;;;;;87.78;68.82;;;;;;;8.06;100.00;99752.06;4157354;28;20040;-73
2022/10/19 08:38:48;;;;;;;40.72;30.10;;;;;;;8.14;100.00;99758.69;4157018;28;20041;-73
2022/10/19 08:40:48;;;;;;;28.38;21.50;;;;;;;8.16;100.00;99748.16;4155488;28;20033;-73
2022/10/19 08:43:01;;;;;;;23.15;14.90;;;;;;;8.25;100.00;99750.84;4156585;28;20061;-73
2022/10/19 08:45:20;;;;;;;13.80;9.45;;;;;;;8.30;100.00;99751.50;4160133;28;20056;-73
2022/10/19 08:47:36;;;;;;;14.75;9.23;;;;;;;8.35;100.00;99745.81;4161587;28;20049;-73
2022/10/19 08:49:36;;;;;;;18.05;9.00;;;;;;;8.41;100.00;99751.94;4155824;28;20034;-73
2022/10/19 08:51:39;;;;;;;13.38;8.85;;;;;;;8.48;100.00;99743.97;4156199;28;20167;-73
2022/10/19 08:53:42;;;;;;;13.48;7.95;;;;;;;8.52;100.00;99752.38;4160633;28;20030;-73
2022/10/19 08:55:58;;;;;;;11.68;7.82;;;;;;;8.53;100.00;99751.25;4160205;28;20071;-73
2022/10/19 08:58:17;;;;;;;13.88;7.65;;;;;;;8.52;100.00;99755.13;4155900;28;20126;-73
2022/10/19 09:00:39;;;;;;;12.25;6.18;;;;;;;8.53;100.00;99751.25;4155869;28;20049;-73
2022/10/19 09:02:55;;;;;;;13.80;7.10;;;;;;;8.52;100.00;99744.91;4157896;28;20056;-73
2022/10/19 09:05:02;;;;;;;12.20;7.47;;;;;;;8.49;100.00;99740.06;4156634;28;20482;-73
2022/10/19 09:07:23;;;;;;;9.23;6.53;;;;;;;8.53;100.00;99746.53;4156779;28;20498;-73
2022/10/19 09:09:26;;;;;;;10.80;6.68;;;;;;;8.53;100.00;99749.28;4156421;28;20572;-73
2022/10/19 09:11:31;;;;;;;15.57;7.00;;;;;;;8.55;100.00;99749.75;4155534;28;20492;-73
2022/10/19 09:13:43;;;;;;;12.25;7.45;;;;;;;8.54;100.00;99742.63;4156616;28;20452;-73
2022/10/19 09:15:49;;;;;;;12.48;7.50;;;;;;;8.61;100.00;99744.88;4159349;28;20471;-73
2022/10/19 09:17:49;;;;;;;12.55;7.63;;;;;;;8.62;100.00;99733.50;4162015;28;20049;-73
2022/10/19 09:19:50;;;;;;;12.35;6.88;;;;;;;8.68;100.00;99742.38;4155289;28;20437;-73
2022/10/19 09:21:57;;;;;;;10.25;6.35;;;;;;;8.70;100.00;99729.06;4156140;28;20045;-73
2022/10/19 09:24:07;;;;;;;11.65;7.78;;;;;;;8.71;100.00;99738.97;4155566;28;20045;-73
2022/10/19 09:26:20;;;;;;;13.30;7.07;;;;;;;8.75;100.00;99742.66;4155592;28;20502;-73
2022/10/19 09:28:42;;;;;;;12.15;7.05;;;;;;;8.79;100.00;99740.84;4163442;28;20048;-73
2022/10/19 09:30:44;;;;;;;10.35;7.07;;;;;;;8.87;100.00;99739.19;4158928;28;20085;-74
2022/10/19 09:32:47;;;;;;;14.35;6.90;;;;;;;8.90;100.00;99728.25;4156779;28;20107;-73
2022/10/19 09:35:01;;;;;;;17.27;7.10;;;;;;;9.01;100.00;99731.41;4177224;28;20045;-73
2022/10/19 09:37:02;;;;;;;15.20;7.10;;;;;;;9.07;100.00;99734.78;4154367;28;20087;-73